TimeEDT,TemperatureF,Dew PointF,Humidity,Sea Level PressureIn,VisibilityMPH,Wind Direction,Wind SpeedMPH,Gust SpeedMPH,PrecipitationIn,Events,Conditions,WindDirDegrees,DateUTC
12:54 AM,37.0,28.9,73,30.27,10.0,WSW,4.6,-,0.00,,Overcast,240,2011-11-01 04:54:00
1:27 AM,37.4,30.2,75,30.21,10.0,South,4.6,-,0.00,,Overcast,180,2011-11-01 05:27:00
1:54 AM,36.0,30.9,82,30.26,10.0,SE,3.5,-,0.00,,Mostly Cloudy,140,2011-11-01 05:54:00
2:03 AM,35.6,30.2,81,30.21,10.0,SE,4.6,-,N/A,,Mostly Cloudy,140,2011-11-01 06:03:00
2:15 AM,37.4,30.2,75,30.21,10.0,SSE,3.5,-,N/A,,Mostly Cloudy,150,2011-11-01 06:15:00
2:54 AM,37.0,30.9,79,30.27,10.0,SSW,5.8,-,N/A,,Overcast,200,2011-11-01 06:54:00
3:51 AM,35.6,30.2,81,30.22,10.0,South,3.5,-,N/A,,Scattered Clouds,180,2011-11-01 07:51:00
3:54 AM,36.0,30.9,82,30.27,10.0,South,3.5,-,N/A,,Partly Cloudy,190,2011-11-01 07:54:00
4:54 AM,36.0,30.9,82,30.28,10.0,SW,4.6,-,N/A,,Clear,220,2011-11-01 08:54:00
5:54 AM,32.0,30.9,96,30.28,10.0,WSW,3.5,-,N/A,,Clear,240,2011-11-01 09:54:00
6:54 AM,30.9,30.0,96,30.30,10.0,Calm,Calm,-,N/A,,Clear,0,2011-11-01 10:54:00
7:54 AM,32.0,30.0,92,30.32,10.0,Calm,Calm,-,N/A,,Clear,0,2011-11-01 11:54:00
8:54 AM,35.6,32.0,87,30.27,10.0,Calm,Calm,-,N/A,,Clear,0,2011-11-01 12:54:00
10:54 AM,39.2,33.8,81,30.30,10.0,Calm,Calm,-,N/A,,Clear,0,2011-11-01 14:54:00
11:54 AM,43.0,35.1,74,30.36,10.0,Calm,Calm,-,N/A,,Clear,0,2011-11-01 15:54:00
12:54 PM,45.0,35.1,68,30.34,10.0,Calm,Calm,-,N/A,,Clear,0,2011-11-01 16:54:00
1:54 PM,46.9,34.0,61,30.32,10.0,Calm,Calm,-,N/A,,Clear,0,2011-11-01 17:54:00
2:54 PM,48.2,33.8,58,30.28,10.0,NNW,5.8,-,N/A,,Clear,330,2011-11-01 18:54:00
3:54 PM,48.0,34.0,58,30.31,10.0,Variable,3.5,-,N/A,,Clear,0,2011-11-01 19:54:00
4:54 PM,50.0,33.1,52,30.31,10.0,Calm,Calm,-,N/A,,Clear,0,2011-11-01 20:54:00
5:54 PM,48.0,33.1,56,30.32,10.0,Calm,Calm,-,N/A,,Clear,0,2011-11-01 21:54:00
6:54 PM,45.0,32.0,60,30.34,10.0,Calm,Calm,-,N/A,,Clear,0,2011-11-01 22:54:00
7:54 PM,42.8,32.0,66,30.30,10.0,SSE,3.5,-,N/A,,Clear,160,2011-11-01 23:54:00
8:54 PM,41.0,32.0,70,30.35,10.0,South,4.6,-,N/A,,Clear,170,2011-11-02 00:54:00
9:54 PM,41.0,32.0,70,30.35,10.0,SE,4.6,-,N/A,,Clear,140,2011-11-02 01:54:00
10:54 PM,42.1,32.0,67,30.36,10.0,South,4.6,-,N/A,,Clear,180,2011-11-02 02:54:00
11:54 PM,39.2,32.0,75,30.31,10.0,South,5.8,-,N/A,,Clear,190,2011-11-02 03:54:00